Time;durP1;ratioP1;P1;durP2;ratioP2;P2;SDS_P1;SDS_P2;PMS_P1;PMS_P2;Temp;Humidity;BMP_temperature;BMP_pressure;BME280_temperature;BME280_humidity;BME280_pressure;Samples;Min_cycle;Max_cycle;Signal;HPM_P1;HPM_P2
2022/05/07 00:02:00;;;;;;;;;;;9.40;99.90;;;;;;5085876;28;19934;-70
2022/05/07 00:04:27;;;;;;;;;;;10.70;99.90;;;;;;5086366;28;20413;-72
2022/05/07 00:06:54;;;;;;;;;;;10.70;99.90;;;;;;5066416;28;19943;-72
2022/05/07 00:09:23;;;;;;;;;;;10.70;99.90;;;;;;5083614;28;19928;-72
2022/05/07 00:11:50;;;;;;;;;;;10.70;99.90;;;;;;5085291;28;19928;-70
2022/05/07 00:14:17;;;;;;;;;;;10.70;99.90;;;;;;5089284;28;19923;-71
2022/05/07 00:19:25;;;;;;;;;;;10.60;99.90;;;;;;5352729;22;20348;-71
2022/05/07 00:21:52;;;;;;;;;;;10.60;99.90;;;;;;5065267;28;19928;-70
2022/05/07 00:24:19;;;;;;;;;;;10.60;99.90;;;;;;5066117;28;19996;-71
2022/05/07 00:26:47;;;;;;;;;;;10.50;99.90;;;;;;5063058;28;19974;-71
2022/05/07 00:29:14;;;;;;;;;;;10.50;99.90;;;;;;5030593;28;19932;-71
2022/05/07 00:31:40;;;;;;;;;;;10.40;99.90;;;;;;5087094;22;19920;-78
2022/05/07 00:34:08;;;;;;;;;;;10.50;99.90;;;;;;5111621;28;19923;-78
2022/05/07 00:36:35;;;;;;;;;;;10.40;99.90;;;;;;5093654;28;20427;-76
2022/05/07 00:39:03;;;;;;;;;;;10.40;99.90;;;;;;5091223;28;20023;-79
2022/05/07 00:41:30;;;;;;;;;;;10.40;99.90;;;;;;5092746;28;19935;-77
2022/05/07 00:43:58;;;;;;;;;;;10.50;99.90;;;;;;5094202;28;19949;-77
2022/05/07 00:46:26;;;;;;;;;;;10.40;99.90;;;;;;5093234;28;19949;-76
2022/05/07 00:48:54;;;;;;;;;;;10.40;99.90;;;;;;5094638;28;19930;-76
2022/05/07 00:51:35;;;;;;;;;;;10.40;99.90;;;;;;5094012;28;19923;-76
2022/05/07 00:54:04;;;;;;;;;;;10.30;99.90;;;;;;5094887;28;19938;-78
2022/05/07 00:56:32;;;;;;;;;;;10.30;99.90;;;;;;5093413;28;19985;-74
2022/05/07 00:59:00;;;;;;;;;;;10.30;99.90;;;;;;5094584;28;19988;-77
2022/05/07 01:01:27;;;;;;;;;;;10.30;99.90;;;;;;5114128;28;20015;-75
2022/05/07 01:03:55;;;;;;;;;;;10.30;99.90;;;;;;5108291;28;19931;-78
2022/05/07 01:06:23;;;;;;;;;;;10.30;99.90;;;;;;5098447;28;19919;-79
2022/05/07 01:08:51;;;;;;;;;;;7.50;99.90;;;;;;5114671;28;19924;-77
2022/05/07 01:11:19;;;;;;;;;;;10.20;99.90;;;;;;5099862;28;19923;-78
2022/05/07 01:13:47;;;;;;;;;;;10.20;99.90;;;;;;5105807;28;19920;-79
2022/05/07 01:16:16;;;;;;;;;;;10.20;99.90;;;;;;5114591;28;19927;-79
2022/05/07 01:18:44;;;;;;;;;;;10.20;99.90;;;;;;5115780;28;19973;-75
2022/05/07 01:21:14;;;;;;;;;;;10.20;99.90;;;;;;5113484;28;19939;-76
2022/05/07 01:23:44;;;;;;;;;;;10.20;99.90;;;;;;5086479;28;19954;-78
2022/05/07 01:26:12;;;;;;;;;;;10.20;99.90;;;;;;5113308;28;19923;-77
2022/05/07 01:28:41;;;;;;;;;;;10.20;99.90;;;;;;5093945;28;20268;-76
2022/05/07 01:31:10;;;;;;;;;;;10.20;99.90;;;;;;5109316;28;20445;-75
2022/05/07 01:33:38;;;;;;;;;;;10.20;99.90;;;;;;5086072;28;19966;-77
2022/05/07 01:36:11;;;;;;;;;;;10.20;99.90;;;;;;5093556;28;19920;-77
2022/05/07 01:38:42;;;;;;;;;;;10.10;99.90;;;;;;5097046;28;19924;-79
2022/05/07 01:41:09;;;;;;;;;;;10.20;99.90;;;;;;5098000;28;20413;-76
2022/05/07 01:43:37;;;;;;;;;;;10.10;99.90;;;;;;5113044;28;19926;-75
2022/05/07 01:48:09;;;;;;;;;;;10.10;99.90;;;;;;5098282;28;20021;-77
2022/05/07 01:48:51;;;;;;;;;;;10.10;99.90;;;;;;5080429;28;20008;-76
2022/05/07 01:51:18;;;;;;;;;;;10.10;99.90;;;;;;5115051;28;20394;-78
2022/05/07 01:53:47;;;;;;;;;;;10.10;99.90;;;;;;5098957;28;19927;-79
2022/05/07 01:56:14;;;;;;;;;;;10.10;99.90;;;;;;5098670;28;19934;-78
2022/05/07 01:58:46;;;;;;;;;;;10.00;99.90;;;;;;5098246;28;19957;-77
2022/05/07 02:01:14;;;;;;;;;;;10.10;99.90;;;;;;5097637;28;19926;-78
2022/05/07 02:03:41;;;;;;;;;;;10.00;99.90;;;;;;5098053;28;19995;-78
2022/05/07 02:06:09;;;;;;;;;;;10.00;99.90;;;;;;5091238;28;20335;-76
2022/05/07 02:08:37;;;;;;;;;;;10.00;99.90;;;;;;5101793;28;20024;-77
2022/05/07 02:11:10;;;;;;;;;;;10.00;99.90;;;;;;5095944;28;20403;-77
2022/05/07 02:13:37;;;;;;;;;;;10.00;99.90;;;;;;5096695;28;20607;-77
2022/05/07 02:16:05;;;;;;;;;;;10.00;99.90;;;;;;5105006;28;19955;-75
2022/05/07 02:18:33;;;;;;;;;;;12.10;99.90;;;;;;5094886;28;19923;-76
2022/05/07 02:21:00;;;;;;;;;;;10.00;99.90;;;;;;5096825;28;19951;-75
2022/05/07 02:23:27;;;;;;;;;;;9.90;99.90;;;;;;5093543;28;19923;-76
2022/05/07 02:25:54;;;;;;;;;;;9.90;99.90;;;;;;5094487;28;19920;-75
2022/05/07 02:28:24;;;;;;;;;;;9.90;99.90;;;;;;5111549;28;20017;-76
2022/05/07 02:30:52;;;;;;;;;;;9.80;99.90;;;;;;5094212;28;20018;-76
2022/05/07 02:33:19;;;;;;;;;;;9.80;99.90;;;;;;5089974;28;19920;-76
2022/05/07 02:35:46;;;;;;;;;;;9.80;99.90;;;;;;5092390;28;20393;-75
2022/05/07 02:38:13;;;;;;;;;;;9.80;99.90;;;;;;5094690;28;20464;-76
2022/05/07 02:43:30;;;;;;;;;;;9.80;99.90;;;;;;5093091;28;19915;-76
2022/05/07 02:45:57;;;;;;;;;;;9.70;99.90;;;;;;5094683;28;19931;-75
2022/05/07 02:48:25;;;;;;;;;;;9.70;99.90;;;;;;5094132;28;19923;-75
2022/05/07 02:50:52;;;;;;;;;;;9.70;99.90;;;;;;5103590;28;20304;-76
2022/05/07 02:53:19;;;;;;;;;;;9.70;99.90;;;;;;5094388;28;19920;-76
2022/05/07 02:55:46;;;;;;;;;;;9.70;99.90;;;;;;5103873;28;20014;-76
2022/05/07 02:58:13;;;;;;;;;;;9.70;99.90;;;;;;5096175;28;19924;-76
2022/05/07 03:00:44;;;;;;;;;;;9.60;99.90;;;;;;5101869;27;20340;-76
2022/05/07 03:03:11;;;;;;;;;;;9.60;99.90;;;;;;5086565;28;19969;-76
2022/05/07 03:05:38;;;;;;;;;;;9.70;99.90;;;;;;5104678;28;19924;-76
2022/05/07 03:08:06;;;;;;;;;;;9.60;99.90;;;;;;5102486;28;19923;-77
2022/05/07 03:10:36;;;;;;;;;;;9.60;99.90;;;;;;5111123;28;19946;-75
2022/05/07 03:13:03;;;;;;;;;;;9.60;99.90;;;;;;5094085;28;19982;-76
2022/05/07 03:15:30;;;;;;;;;;;9.60;99.90;;;;;;5094060;28;19947;-77
2022/05/07 03:17:59;;;;;;;;;;;9.60;99.90;;;;;;5096351;28;19924;-76
2022/05/07 03:20:27;;;;;;;;;;;9.60;99.90;;;;;;5095015;28;19946;-76
2022/05/07 03:22:54;;;;;;;;;;;9.60;99.90;;;;;;5087591;28;20006;-76
2022/05/07 03:25:21;;;;;;;;;;;9.60;99.90;;;;;;5094961;28;19931;-77
2022/05/07 03:27:49;;;;;;;;;;;9.50;99.90;;;;;;5105788;28;19973;-76
2022/05/07 03:30:18;;;;;;;;;;;9.50;99.90;;;;;;5096024;28;19923;-76
2022/05/07 03:33:03;;;;;;;;;;;9.50;99.90;;;;;;5094265;28;19920;-77
2022/05/07 03:35:30;;;;;;;;;;;9.50;99.90;;;;;;5099038;28;19934;-79
2022/05/07 03:37:58;;;;;;;;;;;9.50;99.90;;;;;;5093337;28;20247;-77
2022/05/07 03:40:32;;;;;;;;;;;9.40;99.90;;;;;;5093351;28;19919;-77
2022/05/07 03:42:59;;;;;;;;;;;9.40;99.90;;;;;;5093976;28;19923;-77
2022/05/07 03:45:29;;;;;;;;;;;9.40;99.90;;;;;;5095000;28;19993;-77
2022/05/07 03:47:57;;;;;;;;;;;9.40;99.90;;;;;;5094001;28;20022;-76
2022/05/07 03:50:26;;;;;;;;;;;9.40;99.90;;;;;;5112005;28;19932;-79
2022/05/07 03:55:41;;;;;;;;;;;9.40;99.90;;;;;;5093618;28;19919;-77
2022/05/07 03:58:11;;;;;;;;;;;9.40;99.90;;;;;;5110511;28;19924;-77
2022/05/07 04:00:38;;;;;;;;;;;9.40;99.90;;;;;;5093761;28;20433;-76
2022/05/07 04:03:10;;;;;;;;;;;9.50;99.90;;;;;;5111235;28;19920;-76
2022/05/07 04:05:48;;;;;;;;;;;9.50;99.90;;;;;;5091375;28;19919;-76
2022/05/07 04:08:19;;;;;;;;;;;9.50;99.90;;;;;;5093483;28;19920;-76
2022/05/07 04:10:46;;;;;;;;;;;9.50;99.90;;;;;;5093270;28;19919;-76
2022/05/07 04:13:19;;;;;;;;;;;9.50;99.90;;;;;;5093408;28;20294;-76
2022/05/07 04:15:51;;;;;;;;;;;9.50;99.90;;;;;;5092186;28;19923;-77
2022/05/07 04:18:19;;;;;;;;;;;9.50;99.90;;;;;;5109219;28;19927;-76
2022/05/07 04:20:50;;;;;;;;;;;9.50;99.90;;;;;;5092997;28;19920;-76
2022/05/07 04:23:18;;;;;;;;;;;9.50;99.90;;;;;;5093587;28;19924;-77
2022/05/07 04:25:47;;;;;;;;;;;9.60;99.90;;;;;;5092715;28;19919;-79
2022/05/07 04:28:17;;;;;;;;;;;9.60;99.90;;;;;;5094525;28;19924;-75
2022/05/07 04:30:50;;;;;;;;;;;9.70;99.90;;;;;;5098655;28;19981;-79
2022/05/07 04:33:23;;;;;;;;;;;9.80;99.90;;;;;;5096723;28;19923;-78
2022/05/07 04:35:55;;;;;;;;;;;9.80;99.90;;;;;;5096000;28;19942;-76
2022/05/07 04:38:24;;;;;;;;;;;9.90;99.90;;;;;;5095921;28;19934;-74
2022/05/07 04:40:51;;;;;;;;;;;10.00;99.90;;;;;;5111041;28;19951;-78
2022/05/07 04:43:21;;;;;;;;;;;10.10;99.90;;;;;;5113845;28;19915;-78
2022/05/07 04:45:49;;;;;;;;;;;10.20;99.90;;;;;;5097679;28;19949;-78
2022/05/07 04:48:18;;;;;;;;;;;10.20;99.90;;;;;;5098189;28;19935;-75
2022/05/07 04:50:47;;;;;;;;;;;10.40;99.90;;;;;;5097305;28;19953;-76
2022/05/07 04:53:25;;;;;;;;;;;10.40;99.90;;;;;;5114110;28;19995;-77
2022/05/07 04:55:54;;;;;;;;;;;10.50;99.90;;;;;;5096604;28;19935;-77
2022/05/07 04:58:23;;;;;;;;;;;10.70;99.90;;;;;;5096713;28;20374;-77
2022/05/07 05:00:52;;;;;;;;;;;11.10;99.90;;;;;;5096893;28;19989;-77
2022/05/07 05:03:22;;;;;;;;;;;11.00;99.90;;;;;;5080641;28;19924;-74
2022/05/07 05:06:13;;;;;;;;;;;11.10;99.90;;;;;;5076912;28;19928;-76
2022/05/07 05:08:57;;;;;;;;;;;11.30;99.90;;;;;;5076149;28;19920;-77
2022/05/07 05:11:25;;;;;;;;;;;11.40;99.90;;;;;;5077155;28;19963;-79
2022/05/07 05:13:53;;;;;;;;;;;11.60;99.90;;;;;;5078047;28;19920;-76
2022/05/07 05:16:21;;;;;;;;;;;11.70;99.90;;;;;;5074312;28;19928;-77
2022/05/07 05:18:51;;;;;;;;;;;11.70;99.90;;;;;;5077206;28;19977;-76
2022/05/07 05:21:25;;;;;;;;;;;11.90;99.90;;;;;;5075975;28;20268;-76
2022/05/07 05:24:07;;;;;;;;;;;12.10;99.90;;;;;;5074908;28;19978;-78
2022/05/07 05:26:36;;;;;;;;;;;12.40;99.90;;;;;;5084048;28;19920;-76
2022/05/07 05:29:07;;;;;;;;;;;12.60;99.90;;;;;;5093646;28;19927;-73
2022/05/07 05:31:34;;;;;;;;;;;12.90;99.90;;;;;;5095076;28;19920;-76
2022/05/07 05:34:13;;;;;;;;;;;13.20;99.90;;;;;;5098529;28;19976;-78
2022/05/07 05:36:53;;;;;;;;;;;13.80;99.90;;;;;;5113823;28;19953;-77
2022/05/07 05:39:23;;;;;;;;;;;14.20;99.90;;;;;;5118493;27;19919;-77
2022/05/07 05:41:53;;;;;;;;;;;14.70;99.90;;;;;;5090077;28;19972;-80
2022/05/07 05:44:20;;;;;;;;;;;14.90;99.90;;;;;;5094527;28;20044;-79
2022/05/07 05:46:55;;;;;;;;;;;15.10;99.90;;;;;;5110148;27;20339;-80
2022/05/07 05:49:26;;;;;;;;;;;15.20;99.90;;;;;;5108319;28;19946;-78
2022/05/07 05:52:01;;;;;;;;;;;15.30;99.90;;;;;;5101099;28;19924;-75
2022/05/07 05:54:34;;;;;;;;;;;15.30;99.90;;;;;;5086353;28;20000;-77
2022/05/07 05:57:01;;;;;;;;;;;15.30;99.90;;;;;;5104640;28;19920;-77
2022/05/07 05:59:29;;;;;;;;;;;15.50;99.90;;;;;;5107186;28;19923;-77
2022/05/07 06:01:56;;;;;;;;;;;15.80;99.90;;;;;;5104128;28;19919;-78
2022/05/07 06:04:34;;;;;;;;;;;16.30;99.90;;;;;;5100031;28;20445;-77
2022/05/07 06:07:11;;;;;;;;;;;16.80;99.90;;;;;;5093396;28;19920;-75
2022/05/07 06:09:42;;;;;;;;;;;17.30;99.90;;;;;;5106666;28;20302;-75
2022/05/07 06:12:16;;;;;;;;;;;17.60;99.90;;;;;;5092746;28;19924;-77
2022/05/07 06:14:43;;;;;;;;;;;17.70;99.90;;;;;;5087244;28;19923;-77
2022/05/07 06:17:11;;;;;;;;;;;17.70;99.90;;;;;;5082874;28;19974;-76
2022/05/07 06:19:43;;;;;;;;;;;17.50;99.90;;;;;;5083984;28;19935;-77
2022/05/07 06:22:11;;;;;;;;;;;17.60;99.90;;;;;;5090305;28;20328;-79
2022/05/07 06:27:47;;;;;;;;;;;17.80;99.90;;;;;;5106626;28;19946;-82
2022/05/07 06:30:19;;;;;;;;;;;17.80;99.90;;;;;;5107079;28;19920;-82
2022/05/07 06:32:54;;;;;;;;;;;17.90;99.90;;;;;;5096039;28;19920;-83
2022/05/07 06:35:26;;;;;;;;;;;18.30;99.90;;;;;;5091123;28;19969;-82
2022/05/07 06:38:05;;;;;;;;;;;19.10;99.90;;;;;;5108099;28;19959;-83
2022/05/07 06:40:32;;;;;;;;;;;20.00;99.90;;;;;;5090795;28;19991;-82
2022/05/07 06:43:04;;;;;;;;;;;21.00;99.90;;;;;;5081432;28;20563;-85
2022/05/07 06:45:40;;;;;;;;;;;21.80;99.90;;;;;;5091850;28;19973;-81
2022/05/07 06:48:11;;;;;;;;;;;22.70;99.90;;;;;;5103295;28;19924;-84
2022/05/07 06:50:40;;;;;;;;;;;23.60;99.90;;;;;;5099659;28;20019;-79
2022/05/07 06:53:09;;;;;;;;;;;25.20;99.90;;;;;;5101795;28;19954;-81
2022/05/07 06:55:54;;;;;;;;;;;25.90;99.90;;;;;;5119019;28;19923;-80
2022/05/07 06:58:23;;;;;;;;;;;26.00;99.90;;;;;;5101829;28;19959;-79
2022/05/07 07:00:52;;;;;;;;;;;26.80;99.90;;;;;;5112056;28;19919;-79
2022/05/07 07:03:19;;;;;;;;;;;27.30;99.90;;;;;;5099758;28;19929;-82
2022/05/07 07:05:47;;;;;;;;;;;27.70;99.90;;;;;;5100430;28;19923;-80
2022/05/07 07:08:14;;;;;;;;;;;28.20;99.90;;;;;;5099011;28;20562;-81
2022/05/07 07:10:41;;;;;;;;;;;29.20;99.90;;;;;;5112537;28;20394;-81
2022/05/07 07:13:08;;;;;;;;;;;29.60;99.90;;;;;;5099429;28;20306;-84
2022/05/07 07:15:39;;;;;;;;;;;29.70;99.90;;;;;;5119528;28;19926;-80
2022/05/07 07:18:09;;;;;;;;;;;29.80;98.80;;;;;;5099846;28;19944;-80
2022/05/07 07:20:38;;;;;;;;;;;30.00;97.80;;;;;;5114956;28;19924;-80
2022/05/07 07:23:11;;;;;;;;;;;30.00;96.80;;;;;;5103434;28;19920;-82
2022/05/07 07:25:40;;;;;;;;;;;29.60;97.80;;;;;;5099204;28;20271;-81
2022/05/07 07:28:08;;;;;;;;;;;29.60;94.90;;;;;;5118250;28;19923;-81
2022/05/07 07:30:35;;;;;;;;;;;29.50;94.60;;;;;;5101789;28;19920;-82
2022/05/07 07:33:04;;;;;;;;;;;29.40;92.80;;;;;;5118023;28;20014;-82
2022/05/07 07:35:31;;;;;;;;;;;29.00;94.50;;;;;;5118841;28;19959;-82
2022/05/07 07:37:58;;;;;;;;;;;29.00;92.90;;;;;;5118370;28;19907;-81
2022/05/07 07:40:28;;;;;;;;;;;29.30;93.30;;;;;;5102544;28;19934;-82
2022/05/07 07:42:55;;;;;;;;;;;30.00;92.30;;;;;;5121076;28;19923;-82
2022/05/07 07:48:08;;;;;;;;;;;30.60;89.90;;;;;;5104102;28;19920;-82
2022/05/07 07:50:38;;;;;;;;;;;30.60;88.60;;;;;;5116952;28;19945;-79
2022/05/07 07:53:05;;;;;;;;;;;30.60;88.80;;;;;;5104290;28;19989;-79
2022/05/07 07:55:34;;;;;;;;;;;29.90;89.20;;;;;;5100150;28;19943;-78
2022/05/07 07:58:02;;;;;;;;;;;29.90;87.50;;;;;;5119305;28;19919;-78
2022/05/07 08:00:30;;;;;;;;;;;29.80;88.20;;;;;;5117730;28;19927;-83
2022/05/07 08:02:58;;;;;;;;;;;29.90;87.90;;;;;;5098393;28;20305;-83
2022/05/07 08:05:27;;;;;;;;;;;30.10;89.50;;;;;;5116488;28;19968;-83
2022/05/07 08:13:24;;;;;;;;;;;30.10;86.70;;;;;;5097649;28;20390;-83
2022/05/07 08:15:51;;;;;;;;;;;30.10;87.90;;;;;;5097133;28;20436;-83
2022/05/07 08:18:18;;;;;;;;;;;30.30;85.70;;;;;;5097278;28;20365;-84
2022/05/07 08:20:46;;;;;;;;;;;30.60;88.20;;;;;;5096124;28;20026;-83
2022/05/07 08:23:13;;;;;;;;;;;30.80;84.80;;;;;;5095923;28;19924;-84
2022/05/07 08:25:40;;;;;;;;;;;31.20;87.30;;;;;;5098114;28;19933;-82
2022/05/07 08:28:09;;;;;;;;;;;29.20;82.90;;;;;;5097798;28;19959;-84
2022/05/07 08:30:37;;;;;;;;;;;31.60;83.30;;;;;;5098011;28;20265;-80
2022/05/07 08:33:05;;;;;;;;;;;31.40;81.40;;;;;;5096580;28;20014;-83
2022/05/07 08:35:32;;;;;;;;;;;31.20;84.70;;;;;;5098380;28;19920;-82
2022/05/07 08:38:00;;;;;;;;;;;31.30;82.00;;;;;;5098038;28;19920;-84
2022/05/07 08:40:28;;;;;;;;;;;31.40;81.60;;;;;;5097215;28;19923;-81
2022/05/07 08:42:56;;;;;;;;;;;31.70;83.90;;;;;;5114779;28;20453;-84
2022/05/07 08:45:23;;;;;;;;;;;31.90;83.40;;;;;;5114109;28;20370;-83
2022/05/07 08:47:53;;;;;;;;;;;31.90;79.80;;;;;;5096281;28;19934;-84
2022/05/07 08:50:22;;;;;;;;;;;32.10;80.10;;;;;;5097617;28;19927;-83
2022/05/07 08:52:49;;;;;;;;;;;32.10;79.20;;;;;;5097019;28;19927;-85
2022/05/07 08:55:18;;;;;;;;;;;31.90;78.10;;;;;;5097774;28;19942;-84
2022/05/07 08:57:46;;;;;;;;;;;32.00;76.90;;;;;;5115194;28;20378;-85
2022/05/07 09:00:16;;;;;;;;;;;31.90;77.40;;;;;;5115420;28;19927;-84
2022/05/07 09:02:43;;;;;;;;;;;31.90;77.30;;;;;;5096941;28;19919;-83
2022/05/07 09:05:13;;;;;;;;;;;31.40;77.40;;;;;;5096132;28;19927;-84
2022/05/07 09:07:41;;;;;;;;;;;31.50;77.50;;;;;;5098890;28;19930;-84
2022/05/07 09:10:11;;;;;;;;;;;31.40;77.50;;;;;;5102677;28;19924;-84
2022/05/07 09:12:39;;;;;;;;;;;31.60;77.50;;;;;;5100522;28;19980;-84
2022/05/07 09:15:07;;;;;;;;;;;31.10;76.50;;;;;;5100510;28;19977;-85
2022/05/07 09:17:35;;;;;;;;;;;31.00;77.60;;;;;;5102340;28;19920;-83
2022/05/07 09:20:10;;;;;;;;;;;31.00;77.70;;;;;;5102205;28;19931;-83
2022/05/07 09:22:47;;;;;;;;;;;31.00;77.10;;;;;;5098866;28;19928;-82
2022/05/07 09:25:18;;;;;;;;;;;30.80;75.70;;;;;;5098483;28;19923;-83
2022/05/07 09:27:47;;;;;;;;;;;30.80;75.50;;;;;;5099871;28;19927;-84
2022/05/07 09:30:21;;;;;;;;;;;30.40;75.10;;;;;;5103576;28;19987;-85
2022/05/07 09:32:50;;;;;;;;;;;30.10;76.30;;;;;;5103377;28;19934;-84
2022/05/07 09:38:01;;;;;;;;;;;30.00;76.90;;;;;;5099208;28;19923;-85
2022/05/07 09:40:31;;;;;;;;;;;29.60;76.80;;;;;;5099542;28;19928;-84
2022/05/07 09:43:00;;;;;;;;;;;29.40;77.70;;;;;;5096838;28;20005;-82
2022/05/07 09:45:28;;;;;;;;;;;29.20;77.10;;;;;;5112752;28;19966;-81
2022/05/07 09:47:55;;;;;;;;;;;29.30;76.60;;;;;;5096418;28;20335;-82
2022/05/07 09:50:43;;;;;;;;;;;28.60;75.90;;;;;;5127102;27;19988;-83
2022/05/07 09:58:44;;;;;;;;;;;27.60;76.60;;;;;;5096897;28;20383;-83
2022/05/07 10:01:24;;;;;;;;;;;27.40;77.20;;;;;;5096101;28;20026;-83
2022/05/07 10:03:57;;;;;;;;;;;27.10;77.10;;;;;;5079302;28;19924;-83
2022/05/07 10:06:35;;;;;;;;;;;26.90;78.00;;;;;;5562984;22;19928;-83
2022/05/07 10:09:11;;;;;;;;;;;27.50;78.10;;;;;;5081059;28;19974;-82
2022/05/07 10:11:39;;;;;;;;;;;26.50;77.40;;;;;;5068717;28;20442;-81
2022/05/07 10:14:07;;;;;;;;;;;26.20;78.80;;;;;;5074176;28;19920;-83
2022/05/07 10:16:35;;;;;;;;;;;25.80;78.40;;;;;;5058743;28;19932;-83
2022/05/07 10:19:11;;;;;;;;;;;25.60;79.70;;;;;;5073210;28;19924;-82
2022/05/07 10:21:38;;;;;;;;;;;25.60;80.90;;;;;;5058596;28;19990;-83
2022/05/07 10:24:08;;;;;;;;;;;25.50;81.40;;;;;;5073538;28;19931;-84
2022/05/07 10:26:39;;;;;;;;;;;25.40;80.80;;;;;;5075340;28;20109;-84
2022/05/07 10:29:07;;;;;;;;;;;;;;;;;;5079872;28;19924;-82
2022/05/07 10:31:34;;;;;;;;;;;;;;;;;;5073189;28;19925;-82
2022/05/07 10:34:03;;;;;;;;;;;25.60;82.10;;;;;;5055146;28;20348;-82
2022/05/07 10:36:35;;;;;;;;;;;25.80;79.90;;;;;;5062478;28;19924;-83
2022/05/07 10:39:07;;;;;;;;;;;25.80;80.00;;;;;;5063101;28;19980;-83
2022/05/07 10:41:34;;;;;;;;;;;;;;;;;;5077785;28;19962;-83
2022/05/07 10:44:05;;;;;;;;;;;;;;;;;;5071567;28;20385;-82
2022/05/07 10:46:39;;;;;;;;;;;26.00;80.40;;;;;;5068480;28;19924;-83
2022/05/07 10:49:08;;;;;;;;;;;26.10;80.30;;;;;;5078986;28;19921;-83
2022/05/07 10:51:36;;;;;;;;;;;26.20;79.60;;;;;;5060207;28;19927;-83
2022/05/07 10:54:04;;;;;;;;;;;;;;;;;;5061005;28;19955;-82
2022/05/07 10:56:31;;;;;;;;;;;26.30;79.80;;;;;;5062206;28;19947;-84
2022/05/07 10:58:59;;;;;;;;;;;26.40;80.10;;;;;;5059810;28;19920;-83
2022/05/07 11:01:27;;;;;;;;;;;26.70;79.70;;;;;;5059028;28;19925;-83
2022/05/07 11:04:03;;;;;;;;;;;26.90;80.20;;;;;;5057951;28;19924;-84
2022/05/07 11:06:31;;;;;;;;;;;27.00;77.60;;;;;;5059862;28;19928;-83
2022/05/07 11:08:58;;;;;;;;;;;27.00;78.20;;;;;;5060435;28;20011;-83
2022/05/07 11:11:25;;;;;;;;;;;27.00;77.30;;;;;;5082343;28;19909;-83
2022/05/07 11:13:54;;;;;;;;;;;27.00;78.00;;;;;;5064374;28;19946;-82
2022/05/07 11:16:22;;;;;;;;;;;26.80;78.00;;;;;;5067765;28;19955;-84
2022/05/07 11:18:52;;;;;;;;;;;26.70;77.90;;;;;;5066304;28;19924;-82
2022/05/07 11:21:19;;;;;;;;;;;26.40;78.00;;;;;;5062662;28;19973;-82
2022/05/07 11:23:55;;;;;;;;;;;26.30;77.70;;;;;;5063079;28;20391;-82
2022/05/07 11:26:22;;;;;;;;;;;26.20;77.60;;;;;;5065429;28;19924;-83
2022/05/07 11:28:50;;;;;;;;;;;26.20;77.70;;;;;;5078513;28;20199;-83
2022/05/07 11:31:27;;;;;;;;;;;26.10;78.10;;;;;;5076537;28;19931;-83
2022/05/07 11:34:01;;;;;;;;;;;26.00;77.80;;;;;;5080209;28;19925;-82
2022/05/07 11:36:29;;;;;;;;;;;25.80;77.60;;;;;;5062663;28;19925;-83
2022/05/07 11:38:59;;;;;;;;;;;25.60;78.10;;;;;;5061762;28;20015;-83
2022/05/07 11:41:26;;;;;;;;;;;25.80;78.40;;;;;;5061121;28;20050;-84
2022/05/07 11:46:48;;;;;;;;;;;25.90;77.80;;;;;;5067413;28;20291;-83
2022/05/07 11:49:15;;;;;;;;;;;25.90;78.60;;;;;;5059353;28;19924;-84
2022/05/07 11:51:42;;;;;;;;;;;25.90;77.80;;;;;;5059732;28;19919;-82
2022/05/07 11:54:12;;;;;;;;;;;25.90;78.40;;;;;;5061377;28;19966;-82
2022/05/07 11:56:46;;;;;;;;;;;26.10;77.90;;;;;;5060536;28;19924;-83
2022/05/07 11:59:13;;;;;;;;;;;26.20;77.50;;;;;;5071105;28;19967;-83
2022/05/07 12:01:40;;;;;;;;;;;26.20;77.30;;;;;;5076174;28;19974;-83
2022/05/07 12:04:08;;;;;;;;;;;26.30;77.30;;;;;;5058444;28;19920;-80
2022/05/07 12:06:35;;;;;;;;;;;;;;;;;;5060021;28;19931;-81
2022/05/07 12:09:13;;;;;;;;;;;26.60;78.50;;;;;;5060154;28;20238;-82
2022/05/07 12:11:44;;;;;;;;;;;;;;;;;;5078105;28;19924;-82
2022/05/07 12:14:12;;;;;;;;;;;26.90;79.10;;;;;;5060360;28;19955;-82
2022/05/07 12:19:30;;;;;;;;;;;27.00;79.70;;;;;;5055037;28;19924;-83
2022/05/07 12:30:18;;;;;;;;;;;26.30;80.20;;;;;;5065674;28;19916;-81
2022/05/07 12:32:46;;;;;;;;;;;26.40;81.30;;;;;;5077440;28;19924;-81
2022/05/07 12:35:13;;;;;;;;;;;26.60;80.30;;;;;;5061219;28;19931;-80
2022/05/07 12:37:41;;;;;;;;;;;26.60;80.70;;;;;;5077891;28;20409;-80
2022/05/07 12:40:12;;;;;;;;;;;26.60;80.60;;;;;;5064396;28;19921;-78
2022/05/07 12:42:39;;;;;;;;;;;26.50;80.20;;;;;;5071143;28;19979;-80
2022/05/07 12:47:36;;;;;;;;;;;26.20;80.90;;;;;;5022013;28;19925;-74
2022/05/07 12:50:03;;;;;;;;;;;26.20;81.90;;;;;;4998992;28;19933;-75
2022/05/07 12:52:30;;;;;;;;;;;26.30;81.80;;;;;;5001393;28;19949;-74
2022/05/07 12:54:57;;;;;;;;;;;26.60;80.60;;;;;;5002411;28;19952;-74
2022/05/07 12:57:27;;;;;;;;;;;26.50;80.60;;;;;;5004050;28;20020;-74
2022/05/07 12:59:53;;;;;;;;;;;26.30;80.40;;;;;;5001517;28;19980;-74
2022/05/07 13:02:20;;;;;;;;;;;26.30;81.00;;;;;;4999576;28;19929;-75
2022/05/07 13:04:47;;;;;;;;;;;26.10;81.10;;;;;;5001933;28;20491;-75
2022/05/07 13:07:13;;;;;;;;;;;25.90;81.70;;;;;;5004752;28;19925;-76
2022/05/07 13:09:40;;;;;;;;;;;25.70;81.00;;;;;;5004498;28;19948;-73
2022/05/07 13:12:10;;;;;;;;;;;25.30;80.90;;;;;;4999849;28;19921;-75
2022/05/07 13:14:39;;;;;;;;;;;25.10;81.30;;;;;;5003437;28;19933;-75
2022/05/07 13:17:05;;;;;;;;;;;24.80;81.60;;;;;;5002779;28;19929;-74
2022/05/07 13:19:32;;;;;;;;;;;24.60;81.20;;;;;;5008579;28;19929;-75
2022/05/07 13:21:59;;;;;;;;;;;24.40;82.20;;;;;;5007224;28;19949;-74
2022/05/07 13:24:25;;;;;;;;;;;24.10;81.10;;;;;;5016558;28;20008;-74
2022/05/07 13:26:52;;;;;;;;;;;24.10;82.50;;;;;;5013619;28;19925;-75
2022/05/07 13:29:19;;;;;;;;;;;23.90;81.90;;;;;;4999347;28;19972;-75
2022/05/07 13:31:49;;;;;;;;;;;23.80;83.10;;;;;;5004027;28;19976;-74
2022/05/07 13:34:16;;;;;;;;;;;23.90;83.90;;;;;;5006847;28;19931;-74
2022/05/07 13:36:42;;;;;;;;;;;24.00;84.60;;;;;;5012370;28;19941;-75
2022/05/07 13:39:09;;;;;;;;;;;24.20;83.40;;;;;;5007490;28;19928;-75
2022/05/07 13:41:36;;;;;;;;;;;24.40;83.30;;;;;;5002165;28;19932;-76
2022/05/07 13:44:03;;;;;;;;;;;24.40;83.80;;;;;;5004607;28;19928;-75
2022/05/07 13:46:30;;;;;;;;;;;24.50;83.90;;;;;;5025199;28;19992;-76
2022/05/07 13:48:58;;;;;;;;;;;24.80;82.60;;;;;;5593868;22;19989;-74
2022/05/07 13:51:25;;;;;;;;;;;24.90;82.30;;;;;;5064949;28;19924;-74
2022/05/07 13:53:52;;;;;;;;;;;24.90;82.30;;;;;;5064014;28;19950;-75
2022/05/07 13:56:20;;;;;;;;;;;25.00;82.60;;;;;;5073532;28;19934;-75
2022/05/07 13:58:46;;;;;;;;;;;25.10;81.70;;;;;;5075771;28;20333;-74
2022/05/07 14:01:13;;;;;;;;;;;25.00;82.20;;;;;;5052197;28;19928;-74
2022/05/07 14:03:40;;;;;;;;;;;25.10;81.90;;;;;;5074324;22;19925;-77
2022/05/07 14:06:08;;;;;;;;;;;25.20;82.50;;;;;;5050706;28;19925;-77
2022/05/07 14:08:35;;;;;;;;;;;25.20;81.60;;;;;;5042694;28;19960;-76
2022/05/07 14:11:02;;;;;;;;;;;25.20;81.70;;;;;;5068513;28;20034;-76
2022/05/07 14:13:29;;;;;;;;;;;25.20;81.40;;;;;;5048601;28;19936;-74
2022/05/07 14:15:56;;;;;;;;;;;25.20;81.70;;;;;;5051034;28;19928;-76
2022/05/07 14:18:23;;;;;;;;;;;25.30;82.30;;;;;;5056588;28;19971;-76
2022/05/07 14:20:50;;;;;;;;;;;25.30;82.50;;;;;;5045491;28;20019;-76
2022/05/07 14:23:18;;;;;;;;;;;25.20;80.70;;;;;;5047289;28;19920;-76
2022/05/07 14:25:48;;;;;;;;;;;25.20;80.80;;;;;;5046408;28;19924;-76
2022/05/07 14:28:14;;;;;;;;;;;25.20;81.00;;;;;;5058112;28;19920;-77
2022/05/07 14:30:41;;;;;;;;;;;25.10;79.90;;;;;;5048047;28;20389;-76
2022/05/07 14:33:08;;;;;;;;;;;25.00;78.90;;;;;;5043786;28;19935;-77
2022/05/07 14:35:35;;;;;;;;;;;24.70;78.20;;;;;;5046304;28;19924;-74
2022/05/07 14:38:02;;;;;;;;;;;24.70;78.40;;;;;;5047093;28;19924;-75
2022/05/07 14:40:31;;;;;;;;;;;24.70;78.60;;;;;;5041111;28;19929;-76
2022/05/07 14:42:59;;;;;;;;;;;24.40;80.00;;;;;;5047515;28;19932;-75
2022/05/07 14:45:26;;;;;;;;;;;24.40;81.40;;;;;;5040900;28;19932;-75
2022/05/07 14:47:54;;;;;;;;;;;24.40;82.30;;;;;;5047026;28;19947;-75
2022/05/07 14:50:20;;;;;;;;;;;24.30;82.70;;;;;;5044903;28;20012;-76
2022/05/07 14:52:48;;;;;;;;;;;24.10;82.10;;;;;;5052076;28;19924;-76
2022/05/07 14:55:14;;;;;;;;;;;26.00;83.80;;;;;;5056276;28;19925;-75
2022/05/07 14:57:42;;;;;;;;;;;23.80;82.50;;;;;;5048510;28;19932;-75
2022/05/07 15:00:10;;;;;;;;;;;23.70;83.50;;;;;;5047871;28;19928;-74
2022/05/07 15:02:37;;;;;;;;;;;23.60;83.30;;;;;;5040509;28;19967;-76
2022/05/07 15:05:04;;;;;;;;;;;23.50;83.70;;;;;;5043641;28;19982;-75
2022/05/07 15:07:30;;;;;;;;;;;23.20;86.40;;;;;;5052486;28;19932;-75
2022/05/07 15:12:43;;;;;;;;;;;21.90;89.80;;;;;;5045387;28;20046;-76
2022/05/07 15:15:18;;;;;;;;;;;21.50;92.00;;;;;;5061151;28;20028;-75
2022/05/07 15:17:45;;;;;;;;;;;21.20;91.20;;;;;;5052324;28;20336;-75
2022/05/07 15:20:15;;;;;;;;;;;21.20;92.80;;;;;;5049223;28;20023;-76